createdAt,value
2023-05-14T00:00:41.382Z,4.40
2023-05-14T00:02:44.553Z,4.67
2023-05-14T00:04:47.711Z,4.63
2023-05-14T00:06:52.238Z,4.70
2023-05-14T00:08:55.498Z,4.67
2023-05-14T00:10:58.936Z,5.07
2023-05-14T00:13:02.367Z,4.33
2023-05-14T00:15:06.134Z,5.30
2023-05-14T00:17:09.450Z,4.57
2023-05-14T00:19:12.565Z,4.53
2023-05-14T00:21:16.302Z,5.47
2023-05-14T00:23:20.652Z,5.07
2023-05-14T00:25:23.725Z,6.90
2023-05-14T00:27:26.864Z,3.90
2023-05-14T00:29:30.259Z,4.20
2023-05-14T00:31:33.426Z,4.10
2023-05-14T00:33:36.725Z,4.10
2023-05-14T00:35:39.952Z,4.10
2023-05-14T00:37:43.079Z,3.80
2023-05-14T00:39:47.472Z,4.17
2023-05-14T00:41:51.703Z,4.60
2023-05-14T00:43:55.010Z,4.47
2023-05-14T00:45:58.256Z,5.20
2023-05-14T00:48:01.462Z,4.87
2023-05-14T00:50:05.685Z,5.30
2023-05-14T00:52:09.547Z,7.13
2023-05-14T00:54:12.682Z,4.83
2023-05-14T00:56:19.779Z,4.70
2023-05-14T00:58:23.901Z,4.60
2023-05-14T01:00:27.068Z,4.83
2023-05-14T01:02:30.536Z,4.60
2023-05-14T01:04:34.913Z,4.63
2023-05-14T01:06:48.873Z,5.40
2023-05-14T01:09:00.380Z,3.97
2023-05-14T01:11:08.713Z,4.10
2023-05-14T01:13:25.486Z,3.73
2023-05-14T01:15:32.040Z,4.33
2023-05-14T01:17:40.013Z,3.60
2023-05-14T01:19:45.534Z,6.20
2023-05-14T01:24:14.649Z,4.47
2023-05-14T01:26:17.670Z,4.50
2023-05-14T01:28:25.229Z,4.33
2023-05-14T01:30:32.600Z,4.20
2023-05-14T01:32:36.497Z,4.33
2023-05-14T01:34:41.941Z,4.50
2023-05-14T01:36:45.899Z,4.50
2023-05-14T01:38:51.560Z,4.17
2023-05-14T01:40:56.724Z,4.17
2023-05-14T01:43:00.390Z,4.60
2023-05-14T01:45:04.103Z,4.40
2023-05-14T01:47:07.489Z,4.00
2023-05-14T01:49:10.624Z,4.80
2023-05-14T01:51:14.752Z,6.90
2023-05-14T01:53:18.058Z,4.43
2023-05-14T01:55:23.649Z,4.20
2023-05-14T01:57:26.604Z,6.50
2023-05-14T01:59:30.532Z,3.93
2023-05-14T02:01:33.912Z,3.80
2023-05-14T02:03:36.971Z,4.87
2023-05-14T02:05:40.125Z,3.50
2023-05-14T02:07:43.107Z,5.37
2023-05-14T02:09:46.126Z,4.43
2023-05-14T02:11:50.744Z,3.83
2023-05-14T02:13:53.778Z,4.10
2023-05-14T02:15:56.919Z,4.13
2023-05-14T02:17:59.886Z,3.80
2023-05-14T02:20:02.953Z,4.40
2023-05-14T02:22:06.236Z,4.23
2023-05-14T02:24:10.207Z,4.57
2023-05-14T02:26:13.552Z,4.40
2023-05-14T02:28:17.930Z,4.67
2023-05-14T02:30:23.229Z,4.60
2023-05-14T02:32:26.589Z,5.47
2023-05-14T02:34:29.763Z,6.90
2023-05-14T02:36:32.788Z,6.23
2023-05-14T02:38:35.781Z,5.63
2023-05-14T02:40:38.950Z,4.50
2023-05-14T02:42:41.976Z,5.63
2023-05-14T02:44:46.377Z,5.30
2023-05-14T02:46:49.467Z,4.73
2023-05-14T02:48:52.604Z,4.73
2023-05-14T02:50:55.864Z,4.73
2023-05-14T02:52:58.943Z,5.10
2023-05-14T02:55:01.972Z,5.23
2023-05-14T02:57:05.021Z,4.77
2023-05-14T02:59:08.000Z,4.70
2023-05-14T03:01:12.743Z,4.33
2023-05-14T03:03:16.584Z,5.60
2023-05-14T03:05:22.800Z,3.97
2023-05-14T03:07:25.776Z,4.00
2023-05-14T03:09:29.006Z,9.03
2023-05-14T03:11:32.446Z,4.93
2023-05-14T03:13:35.650Z,4.97
2023-05-14T03:15:38.616Z,4.20
2023-05-14T03:17:43.470Z,3.50
2023-05-14T03:19:46.416Z,4.87
2023-05-14T03:21:50.341Z,4.90
2023-05-14T03:23:53.844Z,4.83
2023-05-14T03:25:56.926Z,4.77
2023-05-14T03:28:00.836Z,4.87
2023-05-14T03:30:04.375Z,4.60
2023-05-14T03:32:08.109Z,4.57
2023-05-14T03:34:12.838Z,4.77
2023-05-14T03:36:16.093Z,4.83
2023-05-14T03:38:19.476Z,5.40
2023-05-14T03:40:23.317Z,4.63
2023-05-14T03:42:27.055Z,5.20
2023-05-14T03:44:30.061Z,4.57
2023-05-14T03:46:33.074Z,4.93
2023-05-14T03:48:36.300Z,6.03
2023-05-14T03:50:42.179Z,5.30
2023-05-14T03:52:45.905Z,4.87
2023-05-14T03:54:49.010Z,4.83
2023-05-14T03:56:52.240Z,5.43
2023-05-14T03:58:55.230Z,5.07
2023-05-14T04:00:58.525Z,5.57
2023-05-14T04:03:01.653Z,5.23
2023-05-14T04:05:05.648Z,5.67
2023-05-14T04:07:10.122Z,5.83
2023-05-14T04:09:13.408Z,5.40
2023-05-14T04:11:16.405Z,5.23
2023-05-14T04:13:19.672Z,5.33
2023-05-14T04:15:22.785Z,5.23
2023-05-14T04:17:26.024Z,5.00
2023-05-14T04:19:29.072Z,5.47
2023-05-14T04:21:33.280Z,5.20
2023-05-14T04:23:37.691Z,4.63
2023-05-14T04:25:40.820Z,4.87
2023-05-14T04:27:44.249Z,6.47
2023-05-14T04:29:47.177Z,4.80
2023-05-14T04:31:50.582Z,5.10
2023-05-14T04:33:53.552Z,7.93
2023-05-14T04:35:56.896Z,4.13
2023-05-14T04:37:59.808Z,4.70
2023-05-14T04:40:06.716Z,4.73
2023-05-14T04:42:09.704Z,5.90
2023-05-14T04:44:13.942Z,4.50
2023-05-14T04:46:17.202Z,5.67
2023-05-14T04:48:20.823Z,5.20
2023-05-14T04:50:24.424Z,4.77
2023-05-14T04:52:27.683Z,5.63
2023-05-14T04:54:31.151Z,5.33
2023-05-14T04:56:35.578Z,5.07
2023-05-14T04:58:38.587Z,5.17
2023-05-14T05:00:41.807Z,6.20
2023-05-14T05:02:44.839Z,5.43
2023-05-14T05:04:48.116Z,5.30
2023-05-14T05:06:51.833Z,4.90
2023-05-14T05:08:57.016Z,5.27
2023-05-14T05:11:00.097Z,5.30
2023-05-14T05:13:04.569Z,4.90
2023-05-14T05:15:09.497Z,5.40
2023-05-14T05:17:12.970Z,4.80
2023-05-14T05:19:16.458Z,5.57
2023-05-14T05:21:19.544Z,5.40
2023-05-14T05:23:22.795Z,4.93
2023-05-14T05:25:25.737Z,4.80
2023-05-14T05:27:28.915Z,4.67
2023-05-14T05:29:33.740Z,5.57
2023-05-14T05:31:36.911Z,4.93
2023-05-14T05:33:40.325Z,4.97
2023-05-14T05:35:44.675Z,6.33
2023-05-14T05:37:47.862Z,5.17
2023-05-14T05:39:50.779Z,5.10
2023-05-14T05:41:54.869Z,5.00
2023-05-14T05:43:57.806Z,5.03
2023-05-14T05:46:03.427Z,5.30
2023-05-14T05:48:07.153Z,4.70
2023-05-14T05:50:11.479Z,4.40
2023-05-14T05:52:14.664Z,4.90
2023-05-14T05:54:17.650Z,4.57
2023-05-14T05:56:21.137Z,4.43
2023-05-14T05:58:24.124Z,4.93
2023-05-14T06:00:27.276Z,5.90
2023-05-14T06:02:31.859Z,7.13
2023-05-14T06:04:34.961Z,7.80
2023-05-14T06:06:38.010Z,7.63
2023-05-14T06:08:41.219Z,7.40
2023-05-14T06:10:45.617Z,7.43
2023-05-14T06:12:50.054Z,7.00
2023-05-14T06:14:55.239Z,6.27
2023-05-14T06:16:58.700Z,6.10
2023-05-14T06:19:03.257Z,5.83
2023-05-14T06:21:06.395Z,5.80
2023-05-14T06:23:12.277Z,5.40
2023-05-14T06:25:15.745Z,5.60
2023-05-14T06:27:18.834Z,4.70
2023-05-14T06:29:21.785Z,4.83
2023-05-14T06:31:25.155Z,5.27
2023-05-14T06:33:30.681Z,5.83
2023-05-14T06:35:37.781Z,5.23
2023-05-14T06:37:40.737Z,5.40
2023-05-14T06:39:48.243Z,5.60
2023-05-14T06:41:51.744Z,6.40
2023-05-14T06:43:55.210Z,6.60
2023-05-14T06:45:58.172Z,5.97
2023-05-14T06:48:01.225Z,6.80
2023-05-14T06:50:04.338Z,6.80
2023-05-14T06:52:09.289Z,7.10
2023-05-14T06:54:12.231Z,6.80
2023-05-14T06:56:16.410Z,7.40
2023-05-14T06:58:19.429Z,6.40
2023-05-14T07:00:23.544Z,6.97
2023-05-14T07:02:26.878Z,7.53
2023-05-14T07:04:30.007Z,6.80
2023-05-14T07:06:33.217Z,7.87
2023-05-14T07:08:37.657Z,7.03
2023-05-14T07:10:40.833Z,7.37
2023-05-14T07:12:44.256Z,8.37
2023-05-14T07:14:47.180Z,7.93
2023-05-14T07:16:50.414Z,7.63
2023-05-14T07:18:53.654Z,7.37
2023-05-14T07:20:56.682Z,7.37
2023-05-14T07:22:59.682Z,7.77
2023-05-14T07:25:04.343Z,8.10
2023-05-14T07:27:08.495Z,8.50
2023-05-14T07:29:11.812Z,7.13
2023-05-14T07:31:14.901Z,7.30
2023-05-14T07:33:18.099Z,7.13
2023-05-14T07:35:21.234Z,6.43
2023-05-14T07:37:25.951Z,7.03
2023-05-14T07:39:29.272Z,6.73
2023-05-14T07:41:33.620Z,7.20
2023-05-14T07:43:38.767Z,7.33
2023-05-14T07:45:41.939Z,6.53
2023-05-14T07:47:45.063Z,6.97
2023-05-14T07:49:48.582Z,6.60
2023-05-14T07:51:51.838Z,6.40
2023-05-14T07:53:55.522Z,6.63
2023-05-14T07:56:00.085Z,6.07
2023-05-14T07:58:04.740Z,6.43
2023-05-14T08:00:09.130Z,6.40
2023-05-14T08:02:20.230Z,6.93
2023-05-14T08:04:23.789Z,5.50
2023-05-14T08:06:27.518Z,5.53
2023-05-14T08:08:30.797Z,5.87
2023-05-14T08:10:34.031Z,5.87
2023-05-14T08:12:37.793Z,5.37
2023-05-14T08:14:42.240Z,5.23
2023-05-14T08:16:45.517Z,5.90
2023-05-14T08:18:48.647Z,5.50
2023-05-14T08:20:52.003Z,5.53
2023-05-14T08:22:54.879Z,5.13
2023-05-14T08:24:57.846Z,4.87
2023-05-14T08:27:00.841Z,5.30
2023-05-14T08:29:03.828Z,5.47
2023-05-14T08:31:09.326Z,5.17
2023-05-14T08:33:12.493Z,4.50
2023-05-14T08:35:16.116Z,4.53
2023-05-14T08:37:19.216Z,4.97
2023-05-14T08:39:22.299Z,4.90
2023-05-14T08:41:28.576Z,4.90
2023-05-14T08:43:39.242Z,5.03
2023-05-14T08:45:43.291Z,4.67
2023-05-14T08:47:50.334Z,4.47
2023-05-14T08:49:59.956Z,4.70
2023-05-14T08:52:03.424Z,4.47
2023-05-14T08:54:07.922Z,4.30
2023-05-14T08:56:12.889Z,4.23
2023-05-14T08:58:16.118Z,4.37
2023-05-14T09:00:19.492Z,4.40
2023-05-14T09:02:25.789Z,4.50
2023-05-14T09:04:31.149Z,4.03
2023-05-14T09:06:34.979Z,5.30
2023-05-14T09:08:38.780Z,5.40
2023-05-14T09:10:41.719Z,4.00
2023-05-14T09:12:45.077Z,4.53
2023-05-14T09:14:49.912Z,3.97
2023-05-14T09:16:54.772Z,5.40
2023-05-14T09:18:58.096Z,4.53
2023-05-14T09:21:03.048Z,4.50
2023-05-14T09:23:06.084Z,4.03
2023-05-14T09:25:12.097Z,4.27
2023-05-14T09:27:21.478Z,4.27
2023-05-14T09:29:25.992Z,4.43
2023-05-14T09:31:30.558Z,3.93
2023-05-14T09:33:33.586Z,4.13
2023-05-14T09:35:40.429Z,3.87
2023-05-14T09:37:46.287Z,4.17
2023-05-14T09:39:49.510Z,3.83
2023-05-14T09:41:53.153Z,4.50
2023-05-14T09:43:57.213Z,3.50
2023-05-14T09:46:00.440Z,3.93
2023-05-14T09:48:06.888Z,3.23
2023-05-14T09:50:18.788Z,3.00
2023-05-14T09:52:22.097Z,3.30
2023-05-14T09:54:29.227Z,3.17
2023-05-14T09:56:32.351Z,3.30
2023-05-14T09:58:35.334Z,2.80
2023-05-14T10:00:46.082Z,3.40
2023-05-14T10:02:53.097Z,3.03
2023-05-14T10:04:58.860Z,3.40
2023-05-14T10:07:02.680Z,3.13
2023-05-14T10:09:08.419Z,3.30
2023-05-14T10:11:15.320Z,3.07
2023-05-14T10:13:23.345Z,3.50
2023-05-14T10:15:34.835Z,2.70
2023-05-14T10:17:40.443Z,3.17
2023-05-14T10:19:43.719Z,3.30
2023-05-14T10:21:50.456Z,3.87
2023-05-14T10:23:54.013Z,2.83
2023-05-14T10:25:59.010Z,3.30
2023-05-14T10:28:04.578Z,3.30
2023-05-14T10:30:12.973Z,3.33
2023-05-14T10:32:16.493Z,3.33
2023-05-14T10:34:38.259Z,3.27
2023-05-14T10:36:42.624Z,3.60
2023-05-14T10:38:45.838Z,2.70
2023-05-14T10:40:49.155Z,3.07
2023-05-14T10:42:52.349Z,2.87
2023-05-14T10:44:58.637Z,3.13
2023-05-14T10:47:02.214Z,2.80
2023-05-14T10:49:05.325Z,3.00
2023-05-14T10:51:10.066Z,2.90
2023-05-14T10:53:14.922Z,4.90
2023-05-14T10:55:18.218Z,3.17
2023-05-14T10:57:22.810Z,2.80
2023-05-14T10:59:28.688Z,3.00
2023-05-14T11:01:34.333Z,2.80
2023-05-14T11:03:47.854Z,4.17
2023-05-14T11:05:51.400Z,3.70
2023-05-14T11:07:57.822Z,3.30
2023-05-14T11:10:03.574Z,3.43
2023-05-14T11:12:07.799Z,3.13
2023-05-14T11:14:11.207Z,3.50
2023-05-14T11:18:29.840Z,3.00
2023-05-14T11:20:33.400Z,3.00
2023-05-14T11:22:37.377Z,2.70
2023-05-14T11:24:40.509Z,3.13
2023-05-14T11:26:43.988Z,2.80
2023-05-14T11:28:47.335Z,3.10
2023-05-14T11:30:50.351Z,3.10
2023-05-14T11:32:54.276Z,2.60
2023-05-14T11:34:59.185Z,3.17
2023-05-14T11:37:04.913Z,3.03
2023-05-14T11:39:08.756Z,2.93
2023-05-14T11:41:11.962Z,3.17
2023-05-14T11:43:14.962Z,3.73
2023-05-14T11:45:26.218Z,2.97
2023-05-14T11:47:31.475Z,3.20
2023-05-14T11:49:35.956Z,2.97
2023-05-14T11:51:40.342Z,2.80
2023-05-14T11:53:43.450Z,2.60
2023-05-14T11:55:47.566Z,3.13
2023-05-14T11:57:53.098Z,3.37
2023-05-14T11:59:59.064Z,3.90
2023-05-14T12:02:03.648Z,2.90
2023-05-14T12:04:07.316Z,2.90
2023-05-14T12:06:10.919Z,3.23
2023-05-14T12:08:28.102Z,3.10
2023-05-14T12:10:31.747Z,3.10
2023-05-14T12:12:37.929Z,2.53
2023-05-14T12:14:42.724Z,2.97
2023-05-14T12:16:47.032Z,2.77
2023-05-14T12:18:50.177Z,3.20
2023-05-14T12:20:53.244Z,2.90
2023-05-14T12:22:56.571Z,2.70
2023-05-14T12:25:01.413Z,2.87
2023-05-14T12:27:05.051Z,3.47
2023-05-14T12:29:08.169Z,3.00
2023-05-14T12:31:11.140Z,2.80
2023-05-14T12:33:14.523Z,2.53
2023-05-14T12:35:17.844Z,2.90
2023-05-14T12:37:20.811Z,3.00
2023-05-14T12:39:23.894Z,3.57
2023-05-14T12:41:28.492Z,2.97
2023-05-14T12:43:32.158Z,2.70
2023-05-14T12:45:35.468Z,2.70
2023-05-14T12:47:38.838Z,2.97
2023-05-14T12:49:41.830Z,3.60
2023-05-14T12:51:45.671Z,2.93
2023-05-14T12:53:49.318Z,3.37
2023-05-14T12:55:52.758Z,2.67
2023-05-14T12:57:57.729Z,2.90
2023-05-14T13:00:01.560Z,2.80
2023-05-14T13:02:05.153Z,2.40
2023-05-14T13:04:09.055Z,2.73
2023-05-14T13:06:12.214Z,2.63
2023-05-14T13:08:18.269Z,2.63
2023-05-14T13:10:21.763Z,3.10
2023-05-14T13:12:25.281Z,2.67
2023-05-14T13:14:29.758Z,2.70
2023-05-14T13:16:32.749Z,2.73
2023-05-14T13:18:36.147Z,2.60
2023-05-14T13:20:41.284Z,2.70
2023-05-14T13:22:46.198Z,2.60
2023-05-14T13:24:50.611Z,2.50
2023-05-14T13:26:56.630Z,4.27
2023-05-14T13:29:00.811Z,2.87
2023-05-14T13:31:10.931Z,3.70
2023-05-14T13:33:13.926Z,2.43
2023-05-14T13:35:17.187Z,2.50
2023-05-14T13:37:20.947Z,2.40
2023-05-14T13:39:27.093Z,3.20
2023-05-14T13:41:32.686Z,2.50
2023-05-14T13:43:36.740Z,2.37
2023-05-14T13:45:40.056Z,2.60
2023-05-14T13:47:44.601Z,2.30
2023-05-14T13:49:48.157Z,2.40
2023-05-14T13:51:51.999Z,2.70
2023-05-14T13:55:58.544Z,2.20
2023-05-14T13:58:03.264Z,2.20
2023-05-14T14:00:08.006Z,3.03
2023-05-14T14:02:14.917Z,2.23
2023-05-14T14:04:19.897Z,2.50
2023-05-14T14:06:23.528Z,2.43
2023-05-14T14:08:26.864Z,2.27
2023-05-14T14:10:30.086Z,2.27
2023-05-14T14:12:33.839Z,3.43
2023-05-14T14:14:37.152Z,2.30
2023-05-14T14:16:40.326Z,2.80
2023-05-14T14:18:44.556Z,2.30
2023-05-14T14:20:49.282Z,3.50
2023-05-14T14:22:53.513Z,2.30
2023-05-14T14:24:56.642Z,2.10
2023-05-14T14:26:59.889Z,2.37
2023-05-14T14:29:04.794Z,2.00
2023-05-14T14:31:08.335Z,3.23
2023-05-14T14:33:13.592Z,2.20
2023-05-14T14:35:19.491Z,2.40
2023-05-14T14:37:24.262Z,2.60
2023-05-14T14:39:27.606Z,3.13
2023-05-14T14:41:34.917Z,2.47
2023-05-14T14:43:40.375Z,2.57
2023-05-14T14:45:48.876Z,2.50
2023-05-14T14:47:53.542Z,2.40
2023-05-14T14:49:57.002Z,2.30
2023-05-14T14:52:03.280Z,2.50
2023-05-14T14:54:08.327Z,2.63
2023-05-14T14:56:12.213Z,2.33
2023-05-14T14:58:17.326Z,2.77
2023-05-14T15:00:25.065Z,2.20
2023-05-14T15:02:30.600Z,2.83
2023-05-14T15:04:37.081Z,2.30
2023-05-14T15:06:41.034Z,2.20
2023-05-14T15:08:45.098Z,2.50
2023-05-14T15:10:59.249Z,2.27
2023-05-14T15:13:03.916Z,2.90
2023-05-14T15:15:10.565Z,2.30
2023-05-14T15:17:14.688Z,2.30
2023-05-14T15:19:19.153Z,2.30
2023-05-14T15:21:22.944Z,2.13
2023-05-14T15:23:26.565Z,2.10
2023-05-14T15:25:30.460Z,2.30
2023-05-14T15:27:36.547Z,2.30
2023-05-14T15:29:41.556Z,2.97
2023-05-14T15:32:02.824Z,2.40
2023-05-14T15:34:11.539Z,3.33
2023-05-14T15:36:15.806Z,3.40
2023-05-14T15:38:21.195Z,2.97
2023-05-14T15:40:24.797Z,2.50
2023-05-14T15:42:30.925Z,2.83
2023-05-14T15:44:38.741Z,2.30
2023-05-14T15:46:45.163Z,2.53
2023-05-14T15:48:48.302Z,2.67
2023-05-14T15:50:51.727Z,2.90
2023-05-14T15:52:57.228Z,3.13
2023-05-14T15:55:01.450Z,3.43
2023-05-14T15:57:05.418Z,3.13
2023-05-14T15:59:08.580Z,3.10
2023-05-14T16:01:13.570Z,3.10
2023-05-14T16:03:16.971Z,3.90
2023-05-14T16:05:20.770Z,3.90
2023-05-14T16:07:24.089Z,3.70
2023-05-14T16:09:31.123Z,3.60
2023-05-14T16:11:35.297Z,3.40
2023-05-14T16:13:40.146Z,3.83
2023-05-14T16:15:44.155Z,3.77
2023-05-14T16:17:48.823Z,3.90
2023-05-14T16:19:55.942Z,5.10
2023-05-14T16:21:59.617Z,4.23
2023-05-14T16:24:05.957Z,3.60
2023-05-14T16:26:09.208Z,4.27
2023-05-14T16:28:12.961Z,5.27
2023-05-14T16:30:16.791Z,4.67
2023-05-14T16:32:20.174Z,5.10
2023-05-14T16:34:27.284Z,4.47
2023-05-14T16:36:31.196Z,6.90
2023-05-14T16:38:36.810Z,6.47
2023-05-14T16:40:42.264Z,4.37
2023-05-14T16:42:48.470Z,4.37
2023-05-14T16:44:52.580Z,19.40
2023-05-14T16:46:57.597Z,107.63
2023-05-14T16:49:03.050Z,44.13
2023-05-14T16:51:08.048Z,14.07
2023-05-14T16:53:11.517Z,9.63
2023-05-14T16:55:14.796Z,7.93
2023-05-14T16:57:21.974Z,14.80
2023-05-14T16:59:26.317Z,12.97
2023-05-14T17:01:29.729Z,6.00
2023-05-14T17:03:32.958Z,4.93
2023-05-14T17:05:37.236Z,4.40
2023-05-14T17:07:43.583Z,4.13
2023-05-14T17:09:46.804Z,4.13
2023-05-14T17:11:50.461Z,5.03
2023-05-14T17:13:53.517Z,4.97
2023-05-14T17:15:56.569Z,3.53
2023-05-14T17:17:59.763Z,3.73
2023-05-14T17:20:10.517Z,4.00
2023-05-14T17:22:13.947Z,4.30
2023-05-14T17:24:18.462Z,4.10
2023-05-14T17:26:21.753Z,4.33
2023-05-14T17:28:26.918Z,3.77
2023-05-14T17:30:30.489Z,4.23
2023-05-14T17:32:33.831Z,4.10
2023-05-14T17:34:37.454Z,3.90
2023-05-14T17:36:40.703Z,3.43
2023-05-14T17:38:43.686Z,3.10
2023-05-14T17:40:48.466Z,3.03
2023-05-14T17:42:51.592Z,2.73
2023-05-14T17:44:55.160Z,3.43
2023-05-14T17:47:00.468Z,3.13
2023-05-14T17:49:03.871Z,3.10
2023-05-14T17:51:07.369Z,3.33
2023-05-14T17:53:10.613Z,3.00
2023-05-14T17:55:13.713Z,3.50
2023-05-14T17:57:18.293Z,4.27
2023-05-14T17:59:24.159Z,3.30
2023-05-14T18:01:28.528Z,3.63
2023-05-14T18:03:31.692Z,3.63
2023-05-14T18:05:37.671Z,3.20
2023-05-14T18:07:41.096Z,3.20
2023-05-14T18:09:44.234Z,3.60
2023-05-14T18:11:47.941Z,3.93
2023-05-14T18:13:52.779Z,4.10
2023-05-14T18:15:56.582Z,3.43
2023-05-14T18:18:00.044Z,2.97
2023-05-14T18:20:03.630Z,3.43
2023-05-14T18:22:06.985Z,3.43
2023-05-14T18:24:12.984Z,3.03
2023-05-14T18:26:16.457Z,3.00
2023-05-14T18:28:21.866Z,4.73
2023-05-14T18:30:27.349Z,2.83
2023-05-14T18:32:33.339Z,2.90
2023-05-14T18:34:44.544Z,3.40
2023-05-14T18:36:47.919Z,3.30
2023-05-14T18:38:51.120Z,3.87
2023-05-14T18:40:54.745Z,3.53
2023-05-14T18:42:58.065Z,3.80
2023-05-14T18:45:01.635Z,3.40
2023-05-14T18:47:07.178Z,3.90
2023-05-14T18:49:10.552Z,3.53
2023-05-14T18:51:14.552Z,3.37
2023-05-14T18:53:18.343Z,3.17
2023-05-14T18:55:21.720Z,3.83
2023-05-14T18:57:25.058Z,4.00
2023-05-14T18:59:31.443Z,3.60
2023-05-14T19:01:34.591Z,4.00
2023-05-14T19:03:42.365Z,4.10
2023-05-14T19:05:45.796Z,5.10
2023-05-14T19:07:49.490Z,4.27
2023-05-14T19:09:53.193Z,4.13
2023-05-14T19:11:56.248Z,7.83
2023-05-14T19:13:59.278Z,5.03
2023-05-14T19:16:02.763Z,4.50
2023-05-14T19:18:06.675Z,4.30
2023-05-14T19:20:13.236Z,4.43
2023-05-14T19:22:16.491Z,4.30
2023-05-14T19:24:20.533Z,4.53
2023-05-14T19:26:23.921Z,4.63
2023-05-14T19:28:27.024Z,4.50
2023-05-14T19:30:30.554Z,3.77
2023-05-14T19:32:33.630Z,4.20
2023-05-14T19:34:36.706Z,3.50
2023-05-14T19:36:41.872Z,3.70
2023-05-14T19:38:46.481Z,3.67
2023-05-14T19:40:53.411Z,3.50
2023-05-14T19:42:56.451Z,3.60
2023-05-14T19:44:59.568Z,3.37
2023-05-14T19:47:03.330Z,3.67
2023-05-14T19:49:06.927Z,4.77
2023-05-14T19:51:10.959Z,3.63
2023-05-14T19:53:15.800Z,3.60
2023-05-14T19:55:19.012Z,3.50
2023-05-14T19:57:22.262Z,3.63
2023-05-14T19:59:31.877Z,4.37
2023-05-14T20:01:38.144Z,3.63
2023-05-14T20:03:41.870Z,3.40
2023-05-14T20:05:48.993Z,3.80
2023-05-14T20:07:54.150Z,3.30
2023-05-14T20:09:58.717Z,3.60
2023-05-14T20:12:14.244Z,4.80
2023-05-14T20:14:17.476Z,3.57
2023-05-14T20:16:23.386Z,4.07
2023-05-14T20:18:26.981Z,4.13
2023-05-14T20:20:33.215Z,5.03
2023-05-14T20:22:38.496Z,5.23
2023-05-14T20:24:42.456Z,5.10
2023-05-14T20:26:47.445Z,4.60
2023-05-14T20:28:51.918Z,4.37
2023-05-14T20:31:00.267Z,4.47
2023-05-14T20:33:04.101Z,4.90
2023-05-14T20:35:09.656Z,4.50
2023-05-14T20:37:13.049Z,4.93
2023-05-14T20:39:16.669Z,4.80
2023-05-14T20:41:20.111Z,4.87
2023-05-14T20:43:24.790Z,5.43
2023-05-14T20:45:28.052Z,5.07
2023-05-14T20:47:34.073Z,5.27
2023-05-14T20:49:37.525Z,5.40
2023-05-14T20:51:40.569Z,5.27
2023-05-14T20:53:44.112Z,5.30
2023-05-14T20:55:49.775Z,5.40
2023-05-14T20:57:54.250Z,5.40
2023-05-14T21:00:01.495Z,5.67
2023-05-14T21:02:05.061Z,7.00
2023-05-14T21:04:08.652Z,6.33
2023-05-14T21:06:12.573Z,6.20
2023-05-14T21:08:16.322Z,7.90
2023-05-14T21:10:19.399Z,7.27
2023-05-14T21:12:22.726Z,6.60
2023-05-14T21:14:26.072Z,7.23
2023-05-14T21:16:31.617Z,8.20
2023-05-14T21:18:37.878Z,7.63
2023-05-14T21:20:41.566Z,7.50
2023-05-14T21:22:45.239Z,7.63
2023-05-14T21:24:50.731Z,7.70
2023-05-14T21:26:54.323Z,8.00
2023-05-14T21:29:00.458Z,9.03
2023-05-14T21:31:03.575Z,11.33
2023-05-14T21:33:09.529Z,9.03
2023-05-14T21:35:13.111Z,8.87
2023-05-14T21:37:16.172Z,8.40
2023-05-14T21:39:20.028Z,9.37
2023-05-14T21:41:23.737Z,8.20
2023-05-14T21:43:26.977Z,9.97
2023-05-14T21:45:30.182Z,9.37
2023-05-14T21:47:34.228Z,9.33
2023-05-14T21:49:38.791Z,10.83
2023-05-14T21:51:42.793Z,9.07
2023-05-14T21:53:46.236Z,9.63
2023-05-14T21:55:50.007Z,9.23
2023-05-14T21:57:53.261Z,9.50
2023-05-14T21:59:58.045Z,10.00
2023-05-14T22:02:06.939Z,10.93
2023-05-14T22:04:10.860Z,10.70
2023-05-14T22:06:15.577Z,10.70
2023-05-14T22:08:18.875Z,11.03
2023-05-14T22:10:24.423Z,10.80
2023-05-14T22:12:27.836Z,10.63
2023-05-14T22:14:30.767Z,11.60
2023-05-14T22:16:34.384Z,11.57
2023-05-14T22:18:37.511Z,11.37
2023-05-14T22:20:42.099Z,11.27
2023-05-14T22:22:46.795Z,11.13
2023-05-14T22:24:49.823Z,11.80
2023-05-14T22:26:55.163Z,12.03
2023-05-14T22:28:58.594Z,12.70
2023-05-14T22:31:01.814Z,13.53
2023-05-14T22:33:05.741Z,13.87
2023-05-14T22:35:10.031Z,15.23
2023-05-14T22:37:13.288Z,13.60
2023-05-14T22:39:17.714Z,14.67
2023-05-14T22:41:22.285Z,14.60
2023-05-14T22:43:25.340Z,13.70
2023-05-14T22:45:28.429Z,13.50
2023-05-14T22:47:31.760Z,15.47
2023-05-14T22:49:34.905Z,13.43
2023-05-14T22:51:38.605Z,14.60
2023-05-14T22:53:41.821Z,14.60
2023-05-14T22:55:46.599Z,14.83
2023-05-14T22:57:49.812Z,15.03
2023-05-14T22:59:53.325Z,16.03
2023-05-14T23:01:56.442Z,15.30
2023-05-14T23:03:59.721Z,14.80
2023-05-14T23:06:02.723Z,15.53
2023-05-14T23:08:07.123Z,16.20
2023-05-14T23:10:11.741Z,16.33
2023-05-14T23:12:16.402Z,15.37
2023-05-14T23:14:19.725Z,14.97
2023-05-14T23:16:22.964Z,14.80
2023-05-14T23:18:27.455Z,15.60
2023-05-14T23:20:30.710Z,16.63
2023-05-14T23:22:33.688Z,16.20
2023-05-14T23:24:37.237Z,14.07
2023-05-14T23:26:40.662Z,16.10
2023-05-14T23:28:47.532Z,16.13
2023-05-14T23:30:51.020Z,16.10
2023-05-14T23:32:54.095Z,15.37
2023-05-14T23:34:57.544Z,15.43
2023-05-14T23:37:00.733Z,16.47
2023-05-14T23:39:07.858Z,16.80
2023-05-14T23:41:12.551Z,15.80
2023-05-14T23:43:17.193Z,16.93
2023-05-14T23:45:21.736Z,16.17
2023-05-14T23:47:25.296Z,16.37
2023-05-14T23:49:28.335Z,16.43
2023-05-14T23:51:31.694Z,16.60
2023-05-14T23:53:35.063Z,17.40
2023-05-14T23:55:38.106Z,16.87
2023-05-14T23:57:41.913Z,17.10
2023-05-14T23:59:46.111Z,15.97
